sensor_id;sensor_type;location;lat;lon;timestamp;pressure;altitude;pressure_sealevel;temperature;humidity
45872;BME280;32333;55.844;-3.210;2022-10-16T00:01:48;97056.83;;;3.46;100.00
45872;BME280;32333;55.844;-3.210;2022-10-16T00:04:16;97049.26;;;3.59;100.00
45872;BME280;32333;55.844;-3.210;2022-10-16T00:06:43;97052.03;;;4.21;100.00
45872;BME280;32333;55.844;-3.210;2022-10-16T00:09:12;97055.95;;;4.64;100.00
45872;BME280;32333;55.844;-3.210;2022-10-16T00:11:41;97073.15;;;3.85;100.00
45872;BME280;32333;55.844;-3.210;2022-10-16T00:14:35;97076.83;;;4.08;100.00
45872;BME280;32333;55.844;-3.210;2022-10-16T00:17:03;97086.89;;;4.18;100.00
45872;BME280;32333;55.844;-3.210;2022-10-16T00:19:31;97076.94;;;3.35;100.00
45872;BME280;32333;55.844;-3.210;2022-10-16T00:22:00;97075.13;;;2.90;100.00
45872;BME280;32333;55.844;-3.210;2022-10-16T00:24:27;97071.75;;;4.16;100.00
45872;BME280;32333;55.844;-3.210;2022-10-16T00:26:56;97078.73;;;4.41;100.00
45872;BME280;32333;55.844;-3.210;2022-10-16T00:29:24;97084.29;;;5.31;100.00
45872;BME280;32333;55.844;-3.210;2022-10-16T00:31:51;97091.99;;;5.48;100.00
45872;BME280;32333;55.844;-3.210;2022-10-16T00:34:18;97094.11;;;5.10;100.00
45872;BME280;32333;55.844;-3.210;2022-10-16T00:36:47;97094.73;;;4.99;100.00
45872;BME280;32333;55.844;-3.210;2022-10-16T00:39:14;97106.94;;;4.39;100.00
45872;BME280;32333;55.844;-3.210;2022-10-16T00:41:42;97111.26;;;4.75;100.00
45872;BME280;32333;55.844;-3.210;2022-10-16T00:44:47;97114.94;;;4.62;100.00
45872;BME280;32333;55.844;-3.210;2022-10-16T00:47:19;97127.20;;;4.61;100.00
45872;BME280;32333;55.844;-3.210;2022-10-16T00:49:50;97133.68;;;4.71;100.00
45872;BME280;32333;55.844;-3.210;2022-10-16T00:52:20;97144.73;;;4.90;100.00
45872;BME280;32333;55.844;-3.210;2022-10-16T00:54:48;97144.12;;;4.09;100.00
45872;BME280;32333;55.844;-3.210;2022-10-16T00:57:18;97152.98;;;4.15;100.00
45872;BME280;32333;55.844;-3.210;2022-10-16T00:59:45;97159.61;;;4.08;100.00
45872;BME280;32333;55.844;-3.210;2022-10-16T01:02:15;97162.16;;;3.92;100.00
45872;BME280;32333;55.844;-3.210;2022-10-16T01:04:45;97172.09;;;4.46;100.00
45872;BME280;32333;55.844;-3.210;2022-10-16T01:07:20;97173.22;;;4.24;100.00
45872;BME280;32333;55.844;-3.210;2022-10-16T01:10:02;97170.90;;;4.21;100.00
45872;BME280;32333;55.844;-3.210;2022-10-16T01:14:42;97178.98;;;4.49;100.00
45872;BME280;32333;55.844;-3.210;2022-10-16T01:17:15;97183.48;;;3.93;100.00
45872;BME280;32333;55.844;-3.210;2022-10-16T01:20:03;97189.45;;;3.96;100.00
45872;BME280;32333;55.844;-3.210;2022-10-16T01:22:39;97199.06;;;4.20;100.00
45872;BME280;32333;55.844;-3.210;2022-10-16T01:25:17;97197.34;;;3.46;100.00
45872;BME280;32333;55.844;-3.210;2022-10-16T01:27:49;97201.98;;;4.23;100.00
45872;BME280;32333;55.844;-3.210;2022-10-16T01:30:21;97207.02;;;4.02;100.00
45872;BME280;32333;55.844;-3.210;2022-10-16T01:32:55;97208.51;;;4.36;100.00
45872;BME280;32333;55.844;-3.210;2022-10-16T01:35:27;97225.05;;;4.48;100.00
45872;BME280;32333;55.844;-3.210;2022-10-16T01:38:00;97222.90;;;3.88;100.00
45872;BME280;32333;55.844;-3.210;2022-10-16T01:40:30;97224.27;;;3.55;100.00
45872;BME280;32333;55.844;-3.210;2022-10-16T01:44:36;97232.91;;;4.02;100.00
45872;BME280;32333;55.844;-3.210;2022-10-16T01:47:06;97231.12;;;4.12;100.00
45872;BME280;32333;55.844;-3.210;2022-10-16T01:49:37;97235.51;;;3.72;100.00
45872;BME280;32333;55.844;-3.210;2022-10-16T01:52:08;97251.62;;;3.59;100.00
45872;BME280;32333;55.844;-3.210;2022-10-16T01:54:40;97258.65;;;3.95;100.00
45872;BME280;32333;55.844;-3.210;2022-10-16T01:57:10;97262.29;;;3.98;100.00
45872;BME280;32333;55.844;-3.210;2022-10-16T01:59:43;97271.27;;;3.87;100.00
45872;BME280;32333;55.844;-3.210;2022-10-16T02:02:12;97272.59;;;3.33;100.00
45872;BME280;32333;55.844;-3.210;2022-10-16T02:04:44;97270.16;;;3.96;100.00
45872;BME280;32333;55.844;-3.210;2022-10-16T02:07:13;97272.20;;;3.97;100.00
45872;BME280;32333;55.844;-3.210;2022-10-16T02:09:42;97289.55;;;4.34;100.00
45872;BME280;32333;55.844;-3.210;2022-10-16T02:14:38;97294.75;;;4.19;100.00
45872;BME280;32333;55.844;-3.210;2022-10-16T02:17:12;97304.31;;;3.54;100.00
45872;BME280;32333;55.844;-3.210;2022-10-16T02:19:40;97303.74;;;3.88;100.00
45872;BME280;32333;55.844;-3.210;2022-10-16T02:22:13;97304.15;;;4.47;100.00
45872;BME280;32333;55.844;-3.210;2022-10-16T02:24:51;97309.35;;;4.12;100.00
45872;BME280;32333;55.844;-3.210;2022-10-16T02:27:24;97316.59;;;3.52;100.00
45872;BME280;32333;55.844;-3.210;2022-10-16T02:29:58;97320.17;;;4.65;100.00
45872;BME280;32333;55.844;-3.210;2022-10-16T02:32:30;97325.23;;;4.23;100.00
45872;BME280;32333;55.844;-3.210;2022-10-16T02:35:02;97317.18;;;4.40;100.00
45872;BME280;32333;55.844;-3.210;2022-10-16T02:37:31;97330.20;;;3.66;100.00
45872;BME280;32333;55.844;-3.210;2022-10-16T02:40:01;97329.65;;;4.13;100.00
45872;BME280;32333;55.844;-3.210;2022-10-16T02:44:36;97327.29;;;3.96;100.00
45872;BME280;32333;55.844;-3.210;2022-10-16T02:47:03;97332.70;;;3.84;100.00
45872;BME280;32333;55.844;-3.210;2022-10-16T02:49:31;97345.15;;;3.86;100.00
45872;BME280;32333;55.844;-3.210;2022-10-16T02:52:00;97354.10;;;3.70;100.00
45872;BME280;32333;55.844;-3.210;2022-10-16T02:54:27;97357.54;;;3.72;100.00
45872;BME280;32333;55.844;-3.210;2022-10-16T02:56:55;97365.37;;;4.27;100.00
45872;BME280;32333;55.844;-3.210;2022-10-16T02:59:23;97368.04;;;3.63;100.00
45872;BME280;32333;55.844;-3.210;2022-10-16T03:01:51;97362.55;;;4.42;100.00
45872;BME280;32333;55.844;-3.210;2022-10-16T03:04:18;97362.80;;;3.77;100.00
45872;BME280;32333;55.844;-3.210;2022-10-16T03:06:45;97364.33;;;4.26;100.00
45872;BME280;32333;55.844;-3.210;2022-10-16T03:09:14;97370.57;;;4.63;100.00
45872;BME280;32333;55.844;-3.210;2022-10-16T03:11:43;97367.21;;;4.42;100.00
45872;BME280;32333;55.844;-3.210;2022-10-16T03:14:36;97379.64;;;4.70;100.00
45872;BME280;32333;55.844;-3.210;2022-10-16T03:17:03;97382.85;;;4.23;100.00
45872;BME280;32333;55.844;-3.210;2022-10-16T03:19:30;97379.23;;;3.63;100.00
45872;BME280;32333;55.844;-3.210;2022-10-16T03:22:00;97383.62;;;3.96;100.00
45872;BME280;32333;55.844;-3.210;2022-10-16T03:24:28;97387.23;;;3.98;100.00
45872;BME280;32333;55.844;-3.210;2022-10-16T03:32:00;97387.31;;;4.46;100.00
45872;BME280;32333;55.844;-3.210;2022-10-16T03:34:28;97390.09;;;3.82;100.00
45872;BME280;32333;55.844;-3.210;2022-10-16T03:36:55;97387.58;;;3.57;100.00
45872;BME280;32333;55.844;-3.210;2022-10-16T03:39:23;97385.72;;;4.53;100.00
45872;BME280;32333;55.844;-3.210;2022-10-16T03:41:50;97385.47;;;4.47;100.00
45872;BME280;32333;55.844;-3.210;2022-10-16T03:44:36;97381.87;;;3.84;100.00
45872;BME280;32333;55.844;-3.210;2022-10-16T03:47:04;97384.91;;;4.24;100.00
45872;BME280;32333;55.844;-3.210;2022-10-16T03:49:31;97388.29;;;4.20;100.00
45872;BME280;32333;55.844;-3.210;2022-10-16T03:52:00;97384.19;;;4.06;100.00
45872;BME280;32333;55.844;-3.210;2022-10-16T03:54:28;97380.13;;;4.43;100.00
45872;BME280;32333;55.844;-3.210;2022-10-16T03:56:55;97387.62;;;4.54;100.00
45872;BME280;32333;55.844;-3.210;2022-10-16T03:59:24;97396.13;;;3.76;100.00
45872;BME280;32333;55.844;-3.210;2022-10-16T04:01:51;97408.90;;;4.27;100.00
45872;BME280;32333;55.844;-3.210;2022-10-16T04:04:18;97412.63;;;4.20;100.00
45872;BME280;32333;55.844;-3.210;2022-10-16T04:06:46;97410.66;;;3.74;100.00
45872;BME280;32333;55.844;-3.210;2022-10-16T04:09:14;97419.63;;;3.78;100.00
45872;BME280;32333;55.844;-3.210;2022-10-16T04:11:41;97424.31;;;3.83;100.00
45872;BME280;32333;55.844;-3.210;2022-10-16T04:14:36;97437.80;;;3.62;100.00
45872;BME280;32333;55.844;-3.210;2022-10-16T04:17:03;97431.70;;;3.29;100.00
45872;BME280;32333;55.844;-3.210;2022-10-16T04:19:31;97431.60;;;3.67;100.00
45872;BME280;32333;55.844;-3.210;2022-10-16T04:21:59;97425.76;;;3.50;100.00
45872;BME280;32333;55.844;-3.210;2022-10-16T04:24:26;97417.90;;;3.27;100.00
45872;BME280;32333;55.844;-3.210;2022-10-16T04:26:54;97420.42;;;3.66;100.00
45872;BME280;32333;55.844;-3.210;2022-10-16T04:29:21;97417.16;;;3.13;100.00
45872;BME280;32333;55.844;-3.210;2022-10-16T04:31:49;97415.00;;;3.80;100.00
45872;BME280;32333;55.844;-3.210;2022-10-16T04:34:17;97413.47;;;3.48;100.00
45872;BME280;32333;55.844;-3.210;2022-10-16T04:36:47;97424.06;;;3.50;100.00
45872;BME280;32333;55.844;-3.210;2022-10-16T04:39:15;97426.33;;;3.38;100.00
45872;BME280;32333;55.844;-3.210;2022-10-16T04:41:43;97429.75;;;3.35;100.00
45872;BME280;32333;55.844;-3.210;2022-10-16T04:44:36;97430.93;;;3.61;100.00
45872;BME280;32333;55.844;-3.210;2022-10-16T04:47:03;97433.48;;;4.06;100.00
45872;BME280;32333;55.844;-3.210;2022-10-16T04:49:31;97428.34;;;4.64;100.00
45872;BME280;32333;55.844;-3.210;2022-10-16T04:51:59;97424.54;;;4.22;100.00
45872;BME280;32333;55.844;-3.210;2022-10-16T04:54:27;97422.17;;;4.54;100.00
45872;BME280;32333;55.844;-3.210;2022-10-16T04:56:54;97421.30;;;3.99;100.00
45872;BME280;32333;55.844;-3.210;2022-10-16T04:59:23;97424.38;;;4.25;100.00
45872;BME280;32333;55.844;-3.210;2022-10-16T05:01:51;97424.92;;;3.72;100.00
45872;BME280;32333;55.844;-3.210;2022-10-16T05:04:18;97421.72;;;3.78;100.00
45872;BME280;32333;55.844;-3.210;2022-10-16T05:06:47;97422.97;;;3.84;100.00
45872;BME280;32333;55.844;-3.210;2022-10-16T05:09:14;97425.19;;;3.62;100.00
45872;BME280;32333;55.844;-3.210;2022-10-16T05:11:42;97425.60;;;3.69;100.00
45872;BME280;32333;55.844;-3.210;2022-10-16T05:14:36;97429.42;;;3.54;100.00
45872;BME280;32333;55.844;-3.210;2022-10-16T05:17:03;97431.63;;;3.68;100.00
45872;BME280;32333;55.844;-3.210;2022-10-16T05:19:31;97429.81;;;3.35;100.00
45872;BME280;32333;55.844;-3.210;2022-10-16T05:21:59;97419.08;;;3.56;100.00
45872;BME280;32333;55.844;-3.210;2022-10-16T05:24:27;97423.18;;;3.68;100.00
45872;BME280;32333;55.844;-3.210;2022-10-16T05:26:54;97415.99;;;3.91;100.00
45872;BME280;32333;55.844;-3.210;2022-10-16T05:29:22;97407.38;;;3.67;100.00
45872;BME280;32333;55.844;-3.210;2022-10-16T05:31:51;97425.80;;;3.67;100.00
45872;BME280;32333;55.844;-3.210;2022-10-16T05:34:19;97433.17;;;3.71;100.00
45872;BME280;32333;55.844;-3.210;2022-10-16T05:36:47;97445.32;;;3.77;100.00
45872;BME280;32333;55.844;-3.210;2022-10-16T05:39:15;97451.80;;;3.28;100.00
45872;BME280;32333;55.844;-3.210;2022-10-16T05:41:43;97449.08;;;3.33;100.00
45872;BME280;32333;55.844;-3.210;2022-10-16T05:44:35;97453.94;;;3.69;100.00
45872;BME280;32333;55.844;-3.210;2022-10-16T05:47:03;97458.41;;;3.60;100.00
45872;BME280;32333;55.844;-3.210;2022-10-16T05:49:30;97451.26;;;3.33;100.00
45872;BME280;32333;55.844;-3.210;2022-10-16T05:51:59;97475.43;;;3.62;100.00
45872;BME280;32333;55.844;-3.210;2022-10-16T05:54:26;97485.63;;;3.75;100.00
45872;BME280;32333;55.844;-3.210;2022-10-16T05:56:53;97488.00;;;4.07;100.00
45872;BME280;32333;55.844;-3.210;2022-10-16T05:59:21;97475.22;;;3.69;100.00
45872;BME280;32333;55.844;-3.210;2022-10-16T06:01:49;97492.05;;;4.16;100.00
45872;BME280;32333;55.844;-3.210;2022-10-16T06:04:17;97512.36;;;3.86;100.00
45872;BME280;32333;55.844;-3.210;2022-10-16T06:06:44;97517.03;;;4.43;100.00
45872;BME280;32333;55.844;-3.210;2022-10-16T06:09:13;97522.39;;;3.93;100.00
45872;BME280;32333;55.844;-3.210;2022-10-16T06:11:40;97537.65;;;3.89;100.00
45872;BME280;32333;55.844;-3.210;2022-10-16T06:14:35;97549.21;;;4.34;100.00
45872;BME280;32333;55.844;-3.210;2022-10-16T06:17:03;97559.54;;;4.59;100.00
45872;BME280;32333;55.844;-3.210;2022-10-16T06:19:30;97549.57;;;3.78;100.00
45872;BME280;32333;55.844;-3.210;2022-10-16T06:21:59;97559.51;;;4.03;100.00
45872;BME280;32333;55.844;-3.210;2022-10-16T06:24:26;97573.80;;;4.52;100.00
45872;BME280;32333;55.844;-3.210;2022-10-16T06:26:54;97586.92;;;3.96;100.00
45872;BME280;32333;55.844;-3.210;2022-10-16T06:29:22;97569.94;;;3.67;100.00
45872;BME280;32333;55.844;-3.210;2022-10-16T06:31:49;97606.31;;;4.10;100.00
45872;BME280;32333;55.844;-3.210;2022-10-16T06:34:16;97618.08;;;4.60;100.00
45872;BME280;32333;55.844;-3.210;2022-10-16T06:36:44;97618.97;;;3.79;100.00
45872;BME280;32333;55.844;-3.210;2022-10-16T06:39:12;97640.15;;;3.61;100.00
45872;BME280;32333;55.844;-3.210;2022-10-16T06:41:40;97638.27;;;4.13;100.00
45872;BME280;32333;55.844;-3.210;2022-10-16T06:44:36;97644.74;;;4.55;100.00
45872;BME280;32333;55.844;-3.210;2022-10-16T06:47:03;97653.95;;;3.82;100.00
45872;BME280;32333;55.844;-3.210;2022-10-16T06:49:31;97637.75;;;3.61;100.00
45872;BME280;32333;55.844;-3.210;2022-10-16T06:51:59;97668.47;;;3.97;100.00
45872;BME280;32333;55.844;-3.210;2022-10-16T06:54:27;97675.44;;;4.26;100.00
45872;BME280;32333;55.844;-3.210;2022-10-16T06:56:55;97688.31;;;4.23;100.00
45872;BME280;32333;55.844;-3.210;2022-10-16T06:59:24;97698.47;;;4.16;100.00
45872;BME280;32333;55.844;-3.210;2022-10-16T07:01:53;97700.23;;;3.94;100.00
45872;BME280;32333;55.844;-3.210;2022-10-16T07:04:20;97718.51;;;4.31;100.00
45872;BME280;32333;55.844;-3.210;2022-10-16T07:06:48;97719.60;;;4.44;100.00
45872;BME280;32333;55.844;-3.210;2022-10-16T07:09:16;97719.24;;;3.87;100.00
45872;BME280;32333;55.844;-3.210;2022-10-16T07:11:44;97720.99;;;4.06;100.00
45872;BME280;32333;55.844;-3.210;2022-10-16T07:14:36;97741.48;;;4.42;100.00
45872;BME280;32333;55.844;-3.210;2022-10-16T07:17:04;97748.66;;;3.94;100.00
45872;BME280;32333;55.844;-3.210;2022-10-16T07:19:32;97762.94;;;4.11;100.00
45872;BME280;32333;55.844;-3.210;2022-10-16T07:22:00;97772.83;;;4.48;100.00
45872;BME280;32333;55.844;-3.210;2022-10-16T07:24:28;97784.69;;;4.32;100.00
45872;BME280;32333;55.844;-3.210;2022-10-16T07:26:57;97796.01;;;4.08;100.00
45872;BME280;32333;55.844;-3.210;2022-10-16T07:29:25;97813.01;;;4.23;100.00
45872;BME280;32333;55.844;-3.210;2022-10-16T07:31:53;97829.88;;;4.08;100.00
45872;BME280;32333;55.844;-3.210;2022-10-16T07:34:22;97838.61;;;4.01;100.00
45872;BME280;32333;55.844;-3.210;2022-10-16T07:36:51;97834.33;;;4.07;100.00
45872;BME280;32333;55.844;-3.210;2022-10-16T07:39:19;97845.29;;;4.52;100.00
45872;BME280;32333;55.844;-3.210;2022-10-16T07:41:56;97853.03;;;4.14;100.00
45872;BME280;32333;55.844;-3.210;2022-10-16T07:44:36;97857.46;;;4.50;100.00
45872;BME280;32333;55.844;-3.210;2022-10-16T07:47:05;97863.43;;;4.40;100.00
45872;BME280;32333;55.844;-3.210;2022-10-16T07:49:34;97863.53;;;4.50;100.00
45872;BME280;32333;55.844;-3.210;2022-10-16T07:52:04;97876.15;;;4.84;100.00
45872;BME280;32333;55.844;-3.210;2022-10-16T07:54:31;97887.44;;;4.86;100.00
45872;BME280;32333;55.844;-3.210;2022-10-16T07:56:58;97899.81;;;5.26;100.00
45872;BME280;32333;55.844;-3.210;2022-10-16T07:59:26;97910.45;;;4.87;100.00
45872;BME280;32333;55.844;-3.210;2022-10-16T08:01:53;97899.72;;;5.51;100.00
45872;BME280;32333;55.844;-3.210;2022-10-16T08:04:22;97900.79;;;5.68;100.00
45872;BME280;32333;55.844;-3.210;2022-10-16T08:06:49;97929.22;;;5.82;100.00
45872;BME280;32333;55.844;-3.210;2022-10-16T08:09:16;97926.86;;;6.18;100.00
45872;BME280;32333;55.844;-3.210;2022-10-16T08:11:44;97949.91;;;6.35;100.00
45872;BME280;32333;55.844;-3.210;2022-10-16T08:14:35;97945.43;;;5.88;100.00
45872;BME280;32333;55.844;-3.210;2022-10-16T08:17:02;97950.98;;;6.51;100.00
45872;BME280;32333;55.844;-3.210;2022-10-16T08:19:30;97961.40;;;6.87;100.00
45872;BME280;32333;55.844;-3.210;2022-10-16T08:21:58;97973.28;;;7.16;100.00
45872;BME280;32333;55.844;-3.210;2022-10-16T08:24:26;97965.18;;;7.19;100.00
45872;BME280;32333;55.844;-3.210;2022-10-16T08:26:54;97990.28;;;6.86;100.00
45872;BME280;32333;55.844;-3.210;2022-10-16T08:29:23;97994.87;;;7.18;100.00
45872;BME280;32333;55.844;-3.210;2022-10-16T08:31:50;98011.59;;;6.74;100.00
45872;BME280;32333;55.844;-3.210;2022-10-16T08:34:19;98030.24;;;6.95;100.00
45872;BME280;32333;55.844;-3.210;2022-10-16T08:36:48;98030.01;;;6.62;100.00
45872;BME280;32333;55.844;-3.210;2022-10-16T08:39:16;98041.70;;;7.65;100.00
45872;BME280;32333;55.844;-3.210;2022-10-16T08:45:02;98067.35;;;7.07;100.00
45872;BME280;32333;55.844;-3.210;2022-10-16T08:47:44;98079.17;;;7.20;100.00
45872;BME280;32333;55.844;-3.210;2022-10-16T08:50:19;98085.49;;;7.22;100.00
45872;BME280;32333;55.844;-3.210;2022-10-16T08:52:48;98091.30;;;7.03;100.00
45872;BME280;32333;55.844;-3.210;2022-10-16T08:55:28;98108.64;;;7.05;100.00
45872;BME280;32333;55.844;-3.210;2022-10-16T08:57:57;98108.19;;;7.74;100.00
45872;BME280;32333;55.844;-3.210;2022-10-16T09:00:26;98104.33;;;8.37;100.00
45872;BME280;32333;55.844;-3.210;2022-10-16T09:03:07;98114.82;;;7.25;100.00
45872;BME280;32333;55.844;-3.210;2022-10-16T09:05:57;98112.96;;;8.08;100.00
45872;BME280;32333;55.844;-3.210;2022-10-16T09:08:39;98123.05;;;7.89;100.00
45872;BME280;32333;55.844;-3.210;2022-10-16T09:11:16;98123.35;;;8.26;100.00
45872;BME280;32333;55.844;-3.210;2022-10-16T09:14:45;98138.75;;;8.33;100.00
45872;BME280;32333;55.844;-3.210;2022-10-16T09:17:35;98137.39;;;8.28;100.00
45872;BME280;32333;55.844;-3.210;2022-10-16T09:20:15;98144.03;;;8.17;100.00
45872;BME280;32333;55.844;-3.210;2022-10-16T09:22:46;98151.27;;;8.64;100.00
45872;BME280;32333;55.844;-3.210;2022-10-16T09:25:16;98148.29;;;8.21;100.00
45872;BME280;32333;55.844;-3.210;2022-10-16T09:27:47;98164.53;;;8.23;100.00
45872;BME280;32333;55.844;-3.210;2022-10-16T09:30:18;98165.69;;;8.17;100.00
45872;BME280;32333;55.844;-3.210;2022-10-16T09:32:48;98172.95;;;8.80;100.00
45872;BME280;32333;55.844;-3.210;2022-10-16T09:35:19;98181.20;;;9.28;100.00
45872;BME280;32333;55.844;-3.210;2022-10-16T09:37:50;98194.21;;;8.51;100.00
45872;BME280;32333;55.844;-3.210;2022-10-16T09:40:28;98197.88;;;9.37;100.00
45872;BME280;32333;55.844;-3.210;2022-10-16T09:44:36;98204.36;;;8.63;100.00
45872;BME280;32333;55.844;-3.210;2022-10-16T09:47:12;98194.44;;;9.26;100.00
45872;BME280;32333;55.844;-3.210;2022-10-16T09:49:57;98200.49;;;8.52;100.00
45872;BME280;32333;55.844;-3.210;2022-10-16T09:52:29;98212.01;;;8.64;100.00
45872;BME280;32333;55.844;-3.210;2022-10-16T09:54:58;98216.60;;;9.08;100.00
45872;BME280;32333;55.844;-3.210;2022-10-16T09:57:27;98220.51;;;9.51;100.00
45872;BME280;32333;55.844;-3.210;2022-10-16T09:59:57;98228.50;;;9.83;100.00
45872;BME280;32333;55.844;-3.210;2022-10-16T10:02:29;98233.19;;;9.40;100.00
45872;BME280;32333;55.844;-3.210;2022-10-16T10:04:58;98248.79;;;9.69;100.00
45872;BME280;32333;55.844;-3.210;2022-10-16T10:07:27;98247.99;;;9.96;100.00
45872;BME280;32333;55.844;-3.210;2022-10-16T10:09:56;98260.12;;;9.73;100.00
45872;BME280;32333;55.844;-3.210;2022-10-16T10:14:38;98270.22;;;9.81;100.00
45872;BME280;32333;55.844;-3.210;2022-10-16T10:17:13;98268.48;;;10.13;100.00
45872;BME280;32333;55.844;-3.210;2022-10-16T10:19:46;98264.29;;;9.79;100.00
45872;BME280;32333;55.844;-3.210;2022-10-16T10:22:22;98266.95;;;10.08;100.00
45872;BME280;32333;55.844;-3.210;2022-10-16T10:24:59;98281.13;;;10.52;100.00
45872;BME280;32333;55.844;-3.210;2022-10-16T10:27:35;98270.65;;;10.12;100.00
45872;BME280;32333;55.844;-3.210;2022-10-16T10:30:09;98291.44;;;9.88;100.00
45872;BME280;32333;55.844;-3.210;2022-10-16T10:32:48;98297.75;;;10.23;100.00
45872;BME280;32333;55.844;-3.210;2022-10-16T10:35:27;98303.59;;;9.94;100.00
45872;BME280;32333;55.844;-3.210;2022-10-16T10:38:09;98319.97;;;9.18;100.00
45872;BME280;32333;55.844;-3.210;2022-10-16T10:40:51;98332.06;;;10.08;100.00
45872;BME280;32333;55.844;-3.210;2022-10-16T10:45:40;98335.17;;;10.05;100.00
45872;BME280;32333;55.844;-3.210;2022-10-16T10:48:20;98339.70;;;9.73;100.00
45872;BME280;32333;55.844;-3.210;2022-10-16T10:50:55;98352.51;;;10.27;100.00
45872;BME280;32333;55.844;-3.210;2022-10-16T10:53:33;98360.86;;;9.87;100.00
45872;BME280;32333;55.844;-3.210;2022-10-16T10:56:15;98360.69;;;11.42;100.00
45872;BME280;32333;55.844;-3.210;2022-10-16T10:59:38;98368.68;;;11.33;100.00
45872;BME280;32333;55.844;-3.210;2022-10-16T11:02:15;98359.02;;;10.16;100.00
45872;BME280;32333;55.844;-3.210;2022-10-16T11:04:58;98373.68;;;10.99;100.00
45872;BME280;32333;55.844;-3.210;2022-10-16T11:07:32;98374.38;;;10.36;100.00
45872;BME280;32333;55.844;-3.210;2022-10-16T11:10:04;98367.07;;;10.35;100.00
45872;BME280;32333;55.844;-3.210;2022-10-16T11:14:40;98374.07;;;10.72;100.00
45872;BME280;32333;55.844;-3.210;2022-10-16T11:17:12;98384.35;;;10.01;100.00
45872;BME280;32333;55.844;-3.210;2022-10-16T11:19:45;98394.41;;;10.14;100.00
45872;BME280;32333;55.844;-3.210;2022-10-16T11:22:19;98386.71;;;10.25;100.00
45872;BME280;32333;55.844;-3.210;2022-10-16T11:24:53;98410.02;;;10.35;100.00
45872;BME280;32333;55.844;-3.210;2022-10-16T11:27:34;98411.42;;;9.91;100.00
45872;BME280;32333;55.844;-3.210;2022-10-16T11:30:08;98413.74;;;11.02;100.00
45872;BME280;32333;55.844;-3.210;2022-10-16T11:33:04;98424.44;;;10.37;100.00
45872;BME280;32333;55.844;-3.210;2022-10-16T11:35:41;98433.93;;;9.86;100.00
45872;BME280;32333;55.844;-3.210;2022-10-16T11:38:21;98441.21;;;9.99;100.00
45872;BME280;32333;55.844;-3.210;2022-10-16T11:40:58;98435.09;;;9.87;100.00
45872;BME280;32333;55.844;-3.210;2022-10-16T11:44:44;98448.60;;;9.63;100.00
45872;BME280;32333;55.844;-3.210;2022-10-16T11:47:26;98446.54;;;9.11;100.00
45872;BME280;32333;55.844;-3.210;2022-10-16T11:50:00;98455.20;;;9.26;100.00
45872;BME280;32333;55.844;-3.210;2022-10-16T11:52:35;98459.55;;;9.68;100.00
45872;BME280;32333;55.844;-3.210;2022-10-16T11:55:09;98457.57;;;9.97;100.00
45872;BME280;32333;55.844;-3.210;2022-10-16T11:57:44;98473.06;;;9.31;100.00
45872;BME280;32333;55.844;-3.210;2022-10-16T12:00:21;98472.41;;;9.09;100.00
45872;BME280;32333;55.844;-3.210;2022-10-16T12:02:58;98483.71;;;9.39;100.00
45872;BME280;32333;55.844;-3.210;2022-10-16T12:05:35;98488.58;;;9.32;100.00
45872;BME280;32333;55.844;-3.210;2022-10-16T12:08:10;98497.39;;;8.63;100.00
45872;BME280;32333;55.844;-3.210;2022-10-16T12:10:39;98504.59;;;9.32;100.00
45872;BME280;32333;55.844;-3.210;2022-10-16T12:14:38;98514.24;;;9.32;100.00
45872;BME280;32333;55.844;-3.210;2022-10-16T12:17:27;98523.75;;;9.39;100.00
45872;BME280;32333;55.844;-3.210;2022-10-16T12:20:19;98530.00;;;9.18;100.00
45872;BME280;32333;55.844;-3.210;2022-10-16T12:22:50;98527.97;;;9.22;100.00
45872;BME280;32333;55.844;-3.210;2022-10-16T12:25:21;98525.25;;;9.03;100.00
45872;BME280;32333;55.844;-3.210;2022-10-16T12:28:17;98536.28;;;8.73;100.00
45872;BME280;32333;55.844;-3.210;2022-10-16T12:30:53;98542.90;;;8.99;100.00
45872;BME280;32333;55.844;-3.210;2022-10-16T12:33:23;98542.32;;;9.16;100.00
45872;BME280;32333;55.844;-3.210;2022-10-16T12:35:52;98539.18;;;9.34;100.00
45872;BME280;32333;55.844;-3.210;2022-10-16T12:38:25;98545.39;;;8.91;100.00
45872;BME280;32333;55.844;-3.210;2022-10-16T12:40:59;98544.74;;;9.37;100.00
45872;BME280;32333;55.844;-3.210;2022-10-16T12:44:36;98548.20;;;9.67;100.00
45872;BME280;32333;55.844;-3.210;2022-10-16T12:47:03;98551.77;;;9.01;100.00
45872;BME280;32333;55.844;-3.210;2022-10-16T12:49:35;98562.01;;;8.58;100.00
45872;BME280;32333;55.844;-3.210;2022-10-16T12:52:03;98573.13;;;8.89;100.00
45872;BME280;32333;55.844;-3.210;2022-10-16T12:54:36;98580.65;;;8.67;100.00
45872;BME280;32333;55.844;-3.210;2022-10-16T12:57:31;98595.57;;;9.26;100.00
45872;BME280;32333;55.844;-3.210;2022-10-16T13:00:07;98594.64;;;10.17;100.00
45872;BME280;32333;55.844;-3.210;2022-10-16T13:02:58;98594.75;;;9.79;100.00
45872;BME280;32333;55.844;-3.210;2022-10-16T13:05:40;98609.75;;;9.79;100.00
45872;BME280;32333;55.844;-3.210;2022-10-16T13:08:24;98605.96;;;10.30;100.00
45872;BME280;32333;55.844;-3.210;2022-10-16T13:11:02;98619.02;;;10.58;100.00
45872;BME280;32333;55.844;-3.210;2022-10-16T13:14:48;98627.67;;;10.46;100.00
45872;BME280;32333;55.844;-3.210;2022-10-16T13:17:25;98636.24;;;9.56;100.00
45872;BME280;32333;55.844;-3.210;2022-10-16T13:20:03;98644.78;;;9.65;100.00
45872;BME280;32333;55.844;-3.210;2022-10-16T13:22:43;98637.76;;;10.42;100.00
45872;BME280;32333;55.844;-3.210;2022-10-16T13:25:22;98643.05;;;10.29;100.00
45872;BME280;32333;55.844;-3.210;2022-10-16T13:27:55;98648.07;;;9.80;100.00
45872;BME280;32333;55.844;-3.210;2022-10-16T13:30:25;98659.91;;;9.60;100.00
45872;BME280;32333;55.844;-3.210;2022-10-16T13:33:01;98658.51;;;10.21;100.00
45872;BME280;32333;55.844;-3.210;2022-10-16T13:35:32;98659.48;;;10.39;100.00
45872;BME280;32333;55.844;-3.210;2022-10-16T13:38:05;98669.21;;;10.11;100.00
45872;BME280;32333;55.844;-3.210;2022-10-16T13:40:33;98664.48;;;9.40;100.00
45872;BME280;32333;55.844;-3.210;2022-10-16T13:44:39;98672.32;;;9.61;100.00
45872;BME280;32333;55.844;-3.210;2022-10-16T13:47:15;98667.63;;;10.09;100.00